Time;durP1;ratioP1;P1;durP2;ratioP2;P2;SDS_P1;SDS_P2;PMS_P1;PMS_P2;Temp;Humidity;BMP_temperature;BMP_pressure;BME280_temperature;BME280_humidity;BME280_pressure;Samples;Min_cycle;Max_cycle;Signal;HPM_P1;HPM_P2
2022/09/04 00:00:09;;;;;;;7.07;3.92;;;21.50;94.70;;;;;;4890333;29;20024;-84
2022/09/04 00:03:03;;;;;;;8.93;3.60;;;21.50;94.80;;;;;;4890362;29;20052;-84
2022/09/04 00:05:47;;;;;;;4.47;4.05;;;21.50;94.90;;;;;;4907639;29;20029;-84
2022/09/04 00:08:36;;;;;;;4.60;4.30;;;21.50;95.00;;;;;;4908758;29;20096;-84
2022/09/04 00:11:28;;;;;;;3.85;3.40;;;21.50;95.00;;;;;;4912268;29;20067;-83
2022/09/04 00:14:05;;;;;;;4.45;4.05;;;21.40;95.10;;;;;;4910123;29;20032;-83
2022/09/04 00:16:41;;;;;;;7.10;5.45;;;21.40;95.10;;;;;;4912577;29;20048;-84
2022/09/04 00:19:35;;;;;;;8.02;3.78;;;21.40;95.10;;;;;;4896074;29;20040;-84
2022/09/04 00:22:13;;;;;;;4.68;4.32;;;21.40;95.10;;;;;;4912911;29;20063;-83
2022/09/04 00:24:43;;;;;;;4.65;4.25;;;21.40;95.10;;;;;;4895961;29;20036;-84
2022/09/04 00:27:29;;;;;;;4.18;3.78;;;21.40;95.10;;;;;;4880166;29;20024;-83
2022/09/04 00:30:10;;;;;;;4.28;3.97;;;21.30;95.10;;;;;;4895853;29;20044;-84
2022/09/04 00:33:07;;;;;;;9.23;4.63;;;21.30;95.10;;;;;;4895852;29;20032;-84
2022/09/04 00:35:45;;;;;;;7.03;4.32;;;21.20;95.20;;;;;;4912597;29;20036;-83
2022/09/04 00:38:14;;;;;;;9.65;5.13;;;21.30;95.20;;;;;;4912192;29;20025;-83
2022/09/04 00:40:51;;;;;;;4.35;3.97;;;21.20;95.30;;;;;;4895816;29;20035;-83
2022/09/04 00:43:20;;;;;;;4.70;4.28;;;21.20;95.40;;;;;;4895393;29;20060;-84
2022/09/04 00:46:13;;;;;;;4.82;4.32;;;21.20;95.50;;;;;;4895570;29;20099;-84
2022/09/04 00:49:13;;;;;;;4.25;3.95;;;21.20;95.50;;;;;;4896449;29;20139;-84
2022/09/04 00:52:08;;;;;;;5.38;4.80;;;21.20;95.60;;;;;;4895946;29;20111;-84
2022/09/04 00:55:03;;;;;;;4.82;4.43;;;21.20;95.70;;;;;;4895746;29;20064;-84
2022/09/04 00:57:55;;;;;;;5.68;4.97;;;21.10;95.70;;;;;;4893681;29;20044;-84
2022/09/04 01:00:24;;;;;;;4.53;4.22;;;21.10;95.80;;;;;;4895276;29;20076;-85
2022/09/04 01:03:08;;;;;;;7.13;4.10;;;21.10;95.80;;;;;;4895146;29;20040;-85
2022/09/04 01:06:11;;;;;;;5.88;4.60;;;21.10;95.90;;;;;;4895376;29;20033;-84
2022/09/04 01:08:54;;;;;;;5.60;5.10;;;21.10;96.00;;;;;;4911953;29;20025;-84
2022/09/04 01:11:32;;;;;;;5.65;4.80;;;21.00;96.00;;;;;;4894675;29;20064;-85
2022/09/04 01:14:28;;;;;;;5.28;4.88;;;21.00;96.00;;;;;;4894907;29;20045;-83
2022/09/04 01:17:16;;;;;;;4.72;4.35;;;21.00;96.10;;;;;;4911541;29;20045;-84
2022/09/04 01:19:57;;;;;;;5.97;5.40;;;21.00;96.10;;;;;;4911797;29;20035;-84
2022/09/04 01:22:50;;;;;;;5.32;4.93;;;21.00;96.10;;;;;;4911767;29;20100;-84
2022/09/04 01:25:32;;;;;;;4.85;4.45;;;21.00;96.10;;;;;;4911631;29;20088;-84
2022/09/04 01:28:10;;;;;;;5.47;4.55;;;20.90;96.10;;;;;;4911259;29;20474;-84
2022/09/04 01:31:17;;;;;;;4.68;4.22;;;20.90;96.00;;;;;;4894741;29;20482;-84
2022/09/04 01:34:16;;;;;;;6.18;4.72;;;20.80;97.90;;;;;;4887672;29;20044;-85
2022/09/04 01:36:59;;;;;;;4.80;4.28;;;20.90;96.00;;;;;;4911299;29;20035;-84
2022/09/04 01:39:28;;;;;;;5.05;4.60;;;20.90;96.10;;;;;;4911558;29;20497;-84
2022/09/04 01:42:16;;;;;;;8.38;4.70;;;20.90;96.10;;;;;;4911329;29;20467;-84
2022/09/04 01:44:42;;;;;;;5.78;5.28;;;20.80;96.20;;;;;;4894420;29;20029;-85
2022/09/04 01:47:31;;;;;;;6.32;5.72;;;20.80;96.20;;;;;;4894077;29;20035;-84
2022/09/04 01:50:12;;;;;;;6.15;5.22;;;20.80;96.20;;;;;;4910795;29;20043;-84
2022/09/04 01:53:25;;;;;;;4.50;4.20;;;20.80;96.20;;;;;;4894465;29;20068;-84
2022/09/04 01:55:59;;;;;;;5.10;4.70;;;20.80;96.50;;;;;;4908288;29;20044;-84
2022/09/04 01:59:00;;;;;;;5.35;4.85;;;20.80;96.40;;;;;;4894281;29;20080;-84
2022/09/04 02:01:40;;;;;;;8.77;4.70;;;20.70;96.30;;;;;;4893859;29;20079;-84
2022/09/04 02:04:23;;;;;;;5.00;4.60;;;20.70;96.40;;;;;;4894447;29;20103;-84
2022/09/04 02:07:16;;;;;;;5.47;4.97;;;20.70;96.30;;;;;;4891268;29;20029;-84
2022/09/04 02:10:16;;;;;;;5.75;3.95;;;20.70;96.60;;;;;;4861572;29;20173;-83
2022/09/04 02:12:57;;;;;;;5.18;4.75;;;20.70;96.50;;;;;;4892329;29;20043;-84
2022/09/04 02:15:32;;;;;;;6.15;4.93;;;20.60;96.40;;;;;;4893795;29;20101;-84
2022/09/04 02:18:31;;;;;;;6.40;4.38;;;20.60;96.40;;;;;;4910727;29;20045;-84
2022/09/04 02:21:34;;;;;;;3.92;3.63;;;20.60;96.50;;;;;;4910941;29;20042;-84
2022/09/04 02:24:09;;;;;;;4.93;4.38;;;20.60;96.50;;;;;;4894208;29;20442;-84
2022/09/04 02:26:43;;;;;;;3.85;3.42;;;20.60;96.60;;;;;;4893888;29;20092;-84
2022/09/04 02:29:28;;;;;;;5.15;4.38;;;20.60;96.60;;;;;;4893943;29;20049;-84
2022/09/04 02:32:08;;;;;;;4.88;4.18;;;20.60;96.60;;;;;;4893687;29;20036;-84
2022/09/04 02:34:53;;;;;;;4.60;4.18;;;20.50;96.70;;;;;;4893929;29;20035;-84
2022/09/04 02:37:22;;;;;;;4.47;4.13;;;20.50;96.70;;;;;;4893749;29;20032;-84
2022/09/04 02:40:05;;;;;;;4.45;4.15;;;20.50;96.70;;;;;;4893905;29;20482;-85
2022/09/04 02:42:40;;;;;;;4.40;4.10;;;20.50;96.70;;;;;;4893931;29;20028;-84
2022/09/04 02:45:23;;;;;;;4.28;3.42;;;20.50;98.70;;;;;;4893760;29;20546;-84
2022/09/04 02:47:51;;;;;;;5.68;4.95;;;20.50;96.80;;;;;;4893378;29;20039;-84
2022/09/04 02:51:02;;;;;;;6.38;5.75;;;20.50;96.80;;;;;;4893558;29;20029;-85
2022/09/04 02:53:50;;;;;;;4.63;4.25;;;20.50;96.80;;;;;;4863238;29;20048;-84
2022/09/04 02:56:23;;;;;;;5.28;4.82;;;20.40;96.90;;;;;;4893786;29;20104;-84
2022/09/04 02:58:56;;;;;;;8.23;3.85;;;20.40;96.90;;;;;;4893596;29;20541;-84
2022/09/04 03:01:46;;;;;;;4.85;3.88;;;20.50;99.40;;;;;;4914168;29;20040;-84
2022/09/04 03:04:18;;;;;;;4.55;4.15;;;20.40;97.00;;;;;;4896972;29;20056;-84
2022/09/04 03:06:53;;;;;;;5.03;4.25;;;20.40;97.00;;;;;;4897216;29;20478;-85
2022/09/04 03:09:41;;;;;;;4.40;4.00;;;20.40;97.10;;;;;;4897419;29;20033;-84
2022/09/04 03:12:44;;;;;;;6.22;4.70;;;20.40;97.10;;;;;;4897273;29;20036;-84
2022/09/04 03:15:26;;;;;;;4.50;4.10;;;20.40;97.10;;;;;;4913917;29;20036;-84
2022/09/04 03:18:15;;;;;;;6.55;5.25;;;20.30;97.10;;;;;;4913635;29;20102;-84
2022/09/04 03:21:06;;;;;;;5.18;4.68;;;20.30;97.20;;;;;;4913940;29;20422;-84
2022/09/04 03:24:03;;;;;;;5.22;4.55;;;20.30;97.30;;;;;;4913923;29;20091;-84
2022/09/04 03:26:35;;;;;;;5.03;4.60;;;20.30;97.30;;;;;;4896990;29;20043;-84
2022/09/04 03:29:15;;;;;;;5.35;4.85;;;20.30;97.50;;;;;;4913807;29;20040;-84
2022/09/04 03:31:47;;;;;;;5.40;4.97;;;20.30;97.50;;;;;;4913594;29;20063;-84
2022/09/04 03:34:38;;;;;;;6.70;3.97;;;20.30;97.40;;;;;;4881141;29;20033;-83
2022/09/04 03:37:25;;;;;;;5.18;4.78;;;20.20;97.50;;;;;;4913223;29;20029;-84
2022/09/04 03:40:16;;;;;;;5.30;4.88;;;20.20;97.60;;;;;;4896794;29;20039;-84
2022/09/04 03:43:22;;;;;;;5.30;4.72;;;20.20;97.60;;;;;;4896622;29;20072;-84
2022/09/04 03:46:10;;;;;;;5.50;4.97;;;20.20;97.60;;;;;;4893326;29;20051;-84
2022/09/04 03:48:46;;;;;;;5.85;4.88;;;20.20;97.70;;;;;;4913157;29;20080;-85
2022/09/04 03:51:42;;;;;;;4.50;4.07;;;20.20;97.80;;;;;;4896721;29;20040;-85
2022/09/04 03:54:46;;;;;;;4.90;4.45;;;20.10;97.70;;;;;;4896742;29;20060;-84
2022/09/04 03:57:18;;;;;;;5.13;4.63;;;20.10;97.80;;;;;;4880858;29;20414;-85
2022/09/04 03:59:44;;;;;;;5.25;4.85;;;20.10;97.80;;;;;;4896685;29;20033;-84
2022/09/04 04:02:31;;;;;;;5.30;4.35;;;20.10;97.70;;;;;;4912980;29;20073;-84
2022/09/04 04:05:35;;;;;;;5.50;5.00;;;20.10;97.80;;;;;;4896317;29;20036;-84
2022/09/04 04:08:19;;;;;;;4.03;3.72;;;20.10;97.90;;;;;;4913050;29;20479;-84
2022/09/04 04:11:18;;;;;;;4.85;3.97;;;20.10;97.90;;;;;;4912685;29;20039;-84
2022/09/04 04:13:57;;;;;;;4.30;3.90;;;20.10;97.90;;;;;;4872579;29;20447;-84
2022/09/04 04:16:27;;;;;;;11.87;4.83;;;20.10;97.90;;;;;;4895713;29;20446;-85
2022/09/04 04:19:09;;;;;;;4.65;4.25;;;20.00;98.00;;;;;;4912988;29;20021;-84
2022/09/04 04:22:07;;;;;;;10.35;5.38;;;20.00;98.00;;;;;;4913031;29;20036;-84
2022/09/04 04:24:54;;;;;;;4.63;4.22;;;20.00;98.00;;;;;;4896310;29;20041;-84
2022/09/04 04:27:43;;;;;;;5.40;4.82;;;20.00;98.00;;;;;;4895943;29;20044;-84
2022/09/04 04:30:13;;;;;;;3.70;3.40;;;20.00;98.00;;;;;;4895852;29;20044;-84
2022/09/04 04:32:38;;;;;;;4.00;3.67;;;20.00;98.00;;;;;;4895328;29;20029;-84
2022/09/04 04:35:28;;;;;;;5.65;3.85;;;19.90;98.00;;;;;;4895739;29;20029;-84
2022/09/04 04:38:27;;;;;;;4.40;4.00;;;19.90;98.20;;;;;;4895729;29;20033;-84
2022/09/04 04:41:11;;;;;;;4.20;3.85;;;19.90;98.10;;;;;;4895670;29;20036;-84
2022/09/04 04:43:49;;;;;;;5.65;4.20;;;19.90;98.10;;;;;;4895707;29;20056;-84
2022/09/04 04:46:33;;;;;;;10.15;4.25;;;19.90;98.20;;;;;;4880090;29;20042;-84
2022/09/04 04:49:14;;;;;;;7.25;4.25;;;19.90;98.20;;;;;;4912242;29;20047;-83
2022/09/04 04:52:17;;;;;;;5.18;4.68;;;19.90;98.30;;;;;;4895575;29;20043;-84
2022/09/04 04:54:58;;;;;;;4.60;4.20;;;19.80;98.10;;;;;;4895500;29;20413;-84
2022/09/04 04:57:37;;;;;;;5.20;4.70;;;19.80;98.30;;;;;;4895474;29;20386;-85
2022/09/04 05:00:18;;;;;;;4.65;4.35;;;19.80;98.40;;;;;;4895454;29;20029;-85
2022/09/04 05:03:18;;;;;;;4.05;3.63;;;19.80;98.30;;;;;;4893948;29;20097;-84
2022/09/04 05:05:52;;;;;;;3.28;2.97;;;19.80;98.30;;;;;;4905041;29;20071;-84
2022/09/04 05:08:37;;;;;;;4.28;3.92;;;19.80;98.40;;;;;;4895009;29;20040;-83
2022/09/04 05:11:28;;;;;;;3.75;3.45;;;19.80;98.40;;;;;;4877535;29;20048;-84
2022/09/04 05:14:53;;;;;;;4.20;3.60;;;19.70;98.30;;;;;;4862424;29;20040;-84
2022/09/04 05:17:24;;;;;;;5.00;3.65;;;19.70;98.40;;;;;;4824664;29;20038;-84
2022/09/04 05:20:18;;;;;;;6.03;4.18;;;19.70;98.50;;;;;;4870228;29;20402;-84
2022/09/04 05:22:53;;;;;;;5.18;3.58;;;19.70;98.50;;;;;;4894342;29;20100;-84
2022/09/04 05:25:36;;;;;;;12.40;4.22;;;19.70;98.60;;;;;;4894660;29;20033;-84
2022/09/04 05:28:21;;;;;;;4.97;3.40;;;19.70;98.70;;;;;;4894431;29;20032;-84
2022/09/04 05:31:12;;;;;;;5.13;4.63;;;19.70;98.70;;;;;;4897810;29;20032;-83
2022/09/04 05:34:11;;;;;;;4.15;3.85;;;19.70;98.70;;;;;;4900591;29;20037;-83
2022/09/04 05:43:08;;;;;;;6.05;4.07;;;19.70;98.90;;;;;;4909252;23;20157;-86
2022/09/04 05:50:33;;;;;;;5.50;3.78;;;19.50;99.90;;;;;;4800736;29;20043;-83
2022/09/04 06:06:31;;;;;;;4.85;3.67;;;19.70;99.80;;;;;;4831268;29;20429;-83
2022/09/04 06:10:28;;;;;;;;;;;;;;;;;;;;;
2022/09/04 06:18:13;;;;;;;;;;;;;;;;;;;;;
2022/09/04 06:25:22;;;;;;;6.85;3.38;;;19.70;99.90;;;;;;4791324;29;20054;-84
2022/09/04 06:29:05;;;;;;;3.13;2.92;;;20.40;99.90;;;;;;4806561;29;20093;-85
2022/09/04 06:31:34;;;;;;;7.43;4.72;;;19.70;99.90;;;;;;4837238;29;20140;-84
2022/09/04 06:34:23;;;;;;;4.30;3.92;;;19.80;99.90;;;;;;4817166;29;20038;-84
2022/09/04 06:37:32;;;;;;;4.07;3.55;;;19.80;99.90;;;;;;4836947;29;20038;-84
2022/09/04 06:40:16;;;;;;;5.65;3.97;;;19.80;99.90;;;;;;4837009;29;20034;-84
2022/09/04 06:42:55;;;;;;;4.50;3.05;;;19.80;99.90;;;;;;4841315;29;20081;-85
2022/09/04 06:45:36;;;;;;;3.83;3.30;;;19.80;99.90;;;;;;4856030;29;20053;-85
2022/09/04 06:48:15;;;;;;;3.92;3.63;;;19.80;99.90;;;;;;4862309;29;20049;-85
2022/09/04 06:51:07;;;;;;;4.10;3.72;;;19.90;99.90;;;;;;4871225;29;20041;-86
2022/09/04 06:53:46;;;;;;;4.65;3.72;;;19.90;99.90;;;;;;4866753;29;20029;-85
2022/09/04 06:56:59;;;;;;;7.78;4.68;;;19.90;99.90;;;;;;4866075;29;20119;-84
2022/09/04 06:59:45;;;;;;;3.75;3.42;;;19.90;99.90;;;;;;4875948;29;20173;-84
2022/09/04 07:02:33;;;;;;;4.38;3.85;;;19.90;99.90;;;;;;4871884;29;21628;-85
2022/09/04 07:05:15;;;;;;;3.78;3.47;;;19.90;99.90;;;;;;4869022;29;20040;-85
2022/09/04 07:08:13;;;;;;;7.25;3.25;;;19.90;99.90;;;;;;4876358;29;20118;-85
2022/09/04 07:11:06;;;;;;;4.15;3.85;;;19.90;99.90;;;;;;4868336;29;20049;-85
2022/09/04 07:14:03;;;;;;;3.88;3.53;;;19.90;99.90;;;;;;4844552;29;20057;-85
2022/09/04 07:16:46;;;;;;;8.23;3.35;;;20.00;99.90;;;;;;4889732;29;20088;-85
2022/09/04 07:19:23;;;;;;;3.20;2.90;;;20.00;99.90;;;;;;4865255;29;20056;-85
2022/09/04 07:22:17;;;;;;;3.35;2.80;;;20.10;99.90;;;;;;4858483;29;20033;-84
2022/09/04 07:25:06;;;;;;;4.03;2.58;;;20.10;99.90;;;;;;4889561;29;20111;-85
2022/09/04 07:27:46;;;;;;;3.92;3.17;;;20.10;99.90;;;;;;4863874;29;20045;-85
2022/09/04 07:30:15;;;;;;;2.30;2.20;;;20.10;99.90;;;;;;4884958;29;20082;-85
2022/09/04 07:32:59;;;;;;;3.13;2.83;;;20.20;99.90;;;;;;4890793;29;20044;-85
2022/09/04 07:35:37;;;;;;;5.28;2.50;;;20.20;99.90;;;;;;4873804;29;20043;-85
2022/09/04 07:38:21;;;;;;;4.47;2.47;;;20.20;99.90;;;;;;4887293;29;20032;-85
2022/09/04 07:41:03;;;;;;;2.90;2.70;;;20.20;99.90;;;;;;4874238;29;20029;-86
2022/09/04 07:43:41;;;;;;;2.70;2.25;;;20.30;99.90;;;;;;4890366;29;20392;-85
2022/09/04 07:46:09;;;;;;;3.90;2.28;;;20.30;99.90;;;;;;4872632;29;20518;-85
2022/09/04 07:48:42;;;;;;;3.65;2.55;;;20.30;99.90;;;;;;4877043;29;20028;-85
2022/09/04 07:51:16;;;;;;;2.50;2.15;;;20.30;99.90;;;;;;4874182;29;20064;-86
2022/09/04 07:53:54;;;;;;;3.67;2.25;;;20.40;99.90;;;;;;4891571;29;20081;-85
2022/09/04 07:56:58;;;;;;;2.67;2.47;;;20.40;99.90;;;;;;4877224;29;20039;-86
2022/09/04 07:59:54;;;;;;;4.97;2.50;;;20.40;99.90;;;;;;4882836;29;20088;-86
2022/09/04 08:02:45;;;;;;;3.17;2.05;;;20.40;99.90;;;;;;4893272;29;20029;-85
2022/09/04 08:05:58;;;;;;;2.78;2.15;;;20.50;99.90;;;;;;4882853;29;20037;-85
2022/09/04 08:08:30;;;;;;;1.70;1.60;;;20.50;99.90;;;;;;4850713;29;20046;-84
2022/09/04 08:11:02;;;;;;;2.42;2.10;;;20.50;99.90;;;;;;4888293;29;20052;-85
2022/09/04 08:14:00;;;;;;;2.05;1.92;;;20.60;99.90;;;;;;4879103;29;20037;-85
2022/09/04 08:16:51;;;;;;;1.85;1.25;;;20.60;99.90;;;;;;4877453;29;20417;-85
2022/09/04 08:19:39;;;;;;;2.73;1.83;;;20.60;99.90;;;;;;4894095;29;20101;-85
2022/09/04 08:22:09;;;;;;;1.85;1.75;;;20.70;99.90;;;;;;4894056;29;20305;-85
2022/09/04 08:24:48;;;;;;;;;;;20.70;99.90;;;;;;4894694;29;20131;-85
2022/09/04 08:27:19;;;;;;;2.95;2.08;;;20.70;99.90;;;;;;4893997;29;19956;-83
2022/09/04 08:30:09;;;;;;;1.98;1.73;;;20.80;99.90;;;;;;4876752;29;20073;-83
2022/09/04 08:32:38;;;;;;;2.88;2.67;;;20.80;99.90;;;;;;4876173;29;20061;-83
2022/09/04 08:35:40;;;;;;;2.28;1.95;;;20.90;99.90;;;;;;4872808;29;20054;-83
2022/09/04 08:38:21;;;;;;;2.75;1.70;;;20.90;99.90;;;;;;4893876;29;20056;-86
2022/09/04 08:40:56;;;;;;;2.45;2.25;;;21.00;99.90;;;;;;4895595;29;20036;-87
2022/09/04 08:43:34;;;;;;;3.13;2.35;;;21.10;99.90;;;;;;4894594;29;20054;-85
2022/09/04 08:46:32;;;;;;;3.30;2.60;;;21.10;99.90;;;;;;4893293;29;20057;-85
2022/09/04 08:49:13;;;;;;;1.98;1.88;;;21.20;99.90;;;;;;4892528;29;20041;-86
2022/09/04 08:52:03;;;;;;;2.05;1.95;;;21.20;99.90;;;;;;4887253;29;20037;-84
2022/09/04 08:54:48;;;;;;;4.32;2.70;;;21.20;99.90;;;;;;4875240;29;20081;-84
2022/09/04 08:57:45;;;;;;;3.28;2.35;;;21.30;99.90;;;;;;4892853;29;20033;-84
2022/09/04 09:00:19;;;;;;;1.80;1.70;;;21.30;99.90;;;;;;4876531;29;20033;-84
2022/09/04 09:03:04;;;;;;;2.33;2.08;;;21.40;99.90;;;;;;4907700;29;20039;-85
2022/09/04 09:06:05;;;;;;;2.53;2.30;;;21.50;99.90;;;;;;4891974;29;20063;-85
2022/09/04 09:09:04;;;;;;;1.92;1.33;;;21.50;99.90;;;;;;4890886;29;20025;-84
2022/09/04 09:11:42;;;;;;;2.45;1.95;;;21.60;99.90;;;;;;4875898;29;20033;-86
2022/09/04 09:14:30;;;;;;;3.22;1.85;;;21.60;99.90;;;;;;4876065;29;20021;-86
2022/09/04 09:17:43;;;;;;;2.45;1.92;;;21.70;99.90;;;;;;4891137;29;20390;-85
2022/09/04 09:20:29;;;;;;;2.15;2.05;;;21.70;99.90;;;;;;4817575;29;20109;-86
2022/09/04 09:23:17;;;;;;;1.73;1.60;;;21.70;99.90;;;;;;4906551;29;20048;-86
2022/09/04 09:25:48;;;;;;;2.70;2.33;;;21.80;99.90;;;;;;4882652;29;20482;-87
2022/09/04 09:28:35;;;;;;;4.55;1.92;;;21.80;99.90;;;;;;4892196;29;20037;-86
2022/09/04 09:31:10;;;;;;;1.67;1.58;;;21.90;99.90;;;;;;4888352;29;20052;-86
2022/09/04 09:34:20;;;;;;;1.70;1.60;;;22.00;99.90;;;;;;4894585;29;20376;-86
2022/09/04 09:37:11;;;;;;;2.03;1.92;;;22.00;99.90;;;;;;4897061;29;20056;-85
2022/09/04 09:40:08;;;;;;;1.50;1.40;;;22.10;99.90;;;;;;4892626;29;20104;-84
2022/09/04 09:42:53;;;;;;;1.88;1.77;;;22.20;99.90;;;;;;4865679;29;20053;-84
2022/09/04 09:45:43;;;;;;;2.25;2.05;;;22.30;99.90;;;;;;4894808;29;20084;-84
2022/09/04 09:48:38;;;;;;;2.00;1.80;;;22.30;99.90;;;;;;4861135;29;20120;-85
2022/09/04 09:51:41;;;;;;;1.63;1.52;;;22.40;99.90;;;;;;4875718;29;20045;-85
2022/09/04 09:54:39;;;;;;;2.83;2.05;;;22.50;99.70;;;;;;4875841;29;20029;-85
2022/09/04 09:57:23;;;;;;;2.25;2.10;;;22.50;99.30;;;;;;4875847;29;20025;-85
2022/09/04 10:00:12;;;;;;;2.30;2.05;;;22.60;99.30;;;;;;4892550;29;20025;-86
2022/09/04 10:03:07;;;;;;;1.52;1.42;;;22.70;99.30;;;;;;4875548;29;20056;-86
2022/09/04 10:05:50;;;;;;;2.58;1.98;;;22.80;99.30;;;;;;4875434;29;20041;-86
2022/09/04 10:08:53;;;;;;;3.35;2.40;;;22.90;99.10;;;;;;4875076;29;20037;-86
2022/09/04 10:11:57;;;;;;;6.20;2.15;;;23.10;99.90;;;;;;4856846;29;20043;-86
2022/09/04 10:14:38;;;;;;;2.50;2.22;;;23.20;99.90;;;;;;4886515;29;20028;-86
2022/09/04 10:17:42;;;;;;;2.28;2.13;;;23.10;98.60;;;;;;4910541;29;20028;-86
2022/09/04 10:20:14;;;;;;;2.65;1.98;;;23.20;98.60;;;;;;4878502;29;20476;-86
2022/09/04 10:22:55;;;;;;;1.77;1.67;;;23.20;98.60;;;;;;4893927;29;20048;-85
2022/09/04 10:25:30;;;;;;;3.78;1.77;;;23.30;98.40;;;;;;4893839;29;20067;-87
2022/09/04 10:27:58;;;;;;;3.97;2.25;;;23.30;98.30;;;;;;4910689;29;20037;-86
2022/09/04 10:30:42;;;;;;;3.58;1.77;;;23.50;99.30;;;;;;4893848;29;20041;-86
2022/09/04 10:33:47;;;;;;;2.40;2.08;;;23.40;97.70;;;;;;4893940;29;20088;-87
2022/09/04 10:36:43;;;;;;;4.22;2.50;;;23.50;97.50;;;;;;4863359;29;20060;-85
2022/09/04 10:42:44;;;;;;;2.83;2.58;;;23.60;97.40;;;;;;4910153;29;20045;-85
2022/09/04 10:45:24;;;;;;;2.50;2.03;;;23.70;97.20;;;;;;4893592;29;20036;-86
2022/09/04 10:48:23;;;;;;;2.58;2.30;;;23.80;97.00;;;;;;4893715;29;20036;-85
2022/09/04 10:51:00;;;;;;;2.25;1.92;;;23.90;96.70;;;;;;4863164;29;20077;-86
2022/09/04 10:53:53;;;;;;;3.90;2.90;;;24.00;96.50;;;;;;4893780;29;20036;-85
2022/09/04 10:56:26;;;;;;;2.53;2.33;;;24.00;96.40;;;;;;4889780;29;20029;-86
2022/09/04 10:58:57;;;;;;;3.28;2.05;;;24.00;96.40;;;;;;4891393;29;20092;-86
2022/09/04 11:01:51;;;;;;;5.28;2.50;;;23.90;96.50;;;;;;4874654;29;20108;-86
2022/09/04 11:04:58;;;;;;;2.05;1.80;;;24.00;96.20;;;;;;4875114;29;20033;-85
2022/09/04 11:07:47;;;;;;;2.15;2.05;;;24.00;96.20;;;;;;4891318;29;20045;-84
2022/09/04 11:10:19;;;;;;;4.40;2.28;;;23.80;96.20;;;;;;4874776;29;20077;-84
2022/09/04 11:13:10;;;;;;;4.57;2.67;;;23.70;96.30;;;;;;4874743;29;20120;-85
2022/09/04 11:15:46;;;;;;;4.75;2.35;;;23.60;96.20;;;;;;4874417;29;20025;-85
2022/09/04 11:18:50;;;;;;;1.98;1.30;;;23.90;95.90;;;;;;4891610;29;20034;-86
2022/09/04 11:21:34;;;;;;;2.92;2.55;;;23.90;95.60;;;;;;4876399;29;20037;-84
2022/09/04 11:24:28;;;;;;;2.80;2.53;;;24.00;95.00;;;;;;4877776;29;20039;-84
2022/09/04 11:27:18;;;;;;;3.92;2.20;;;23.90;95.00;;;;;;4878130;29;20109;-84
2022/09/04 11:30:10;;;;;;;3.80;2.13;;;23.80;94.90;;;;;;4874068;29;20033;-85
2022/09/04 11:33:10;;;;;;;2.88;1.80;;;23.80;94.70;;;;;;4877728;29;20061;-85
2022/09/04 11:36:07;;;;;;;1.83;1.73;;;24.10;94.30;;;;;;4896558;29;20044;-84
2022/09/04 11:38:51;;;;;;;2.80;1.83;;;24.30;94.00;;;;;;4877398;29;20052;-85
2022/09/04 11:41:45;;;;;;;2.33;2.13;;;24.40;93.80;;;;;;4877384;29;20052;-85
2022/09/04 11:44:27;;;;;;;2.95;1.70;;;24.30;94.00;;;;;;4869459;29;20029;-85
2022/09/04 11:47:05;;;;;;;1.95;1.83;;;24.30;94.00;;;;;;4908092;29;20032;-84
2022/09/04 11:49:40;;;;;;;2.72;1.75;;;24.20;93.90;;;;;;4893015;29;20041;-84
2022/09/04 11:52:25;;;;;;;2.75;2.17;;;24.20;93.80;;;;;;4877485;29;20045;-84
2022/09/04 11:55:09;;;;;;;1.85;1.45;;;24.10;93.70;;;;;;4877477;29;20029;-84
2022/09/04 11:57:45;;;;;;;1.27;1.20;;;24.10;93.40;;;;;;4894327;29;20032;-85
2022/09/04 12:00:14;;;;;;;1.55;1.45;;;24.20;93.10;;;;;;4859402;29;20475;-84
2022/09/04 12:03:20;;;;;;;3.88;2.33;;;24.20;92.90;;;;;;4893811;29;20032;-85
2022/09/04 12:06:08;;;;;;;1.13;0.82;;;24.10;92.70;;;;;;4893716;29;20068;-85
2022/09/04 12:09:09;;;;;;;1.52;1.42;;;24.00;92.50;;;;;;4894660;29;20096;-84
2022/09/04 12:12:10;;;;;;;2.35;1.23;;;24.10;92.40;;;;;;4895321;29;20121;-85
2022/09/04 12:14:54;;;;;;;2.83;2.00;;;24.20;92.30;;;;;;4887320;29;20045;-85
2022/09/04 12:17:55;;;;;;;1.98;1.83;;;24.20;92.30;;;;;;4875543;29;20020;-85
2022/09/04 12:20:55;;;;;;;1.27;1.17;;;24.20;92.20;;;;;;4878001;29;20029;-85
2022/09/04 12:23:32;;;;;;;1.92;1.77;;;24.20;91.90;;;;;;4876915;29;20039;-85
2022/09/04 12:26:00;;;;;;;1.17;1.13;;;24.30;91.80;;;;;;4877290;29;20037;-85
2022/09/04 12:29:19;;;;;;;2.55;1.48;;;24.40;91.40;;;;;;4888357;29;20021;-85
2022/09/04 12:32:14;;;;;;;1.08;1.08;;;24.40;91.20;;;;;;4884412;29;20048;-85
2022/09/04 12:34:43;;;;;;;1.77;1.58;;;24.40;91.20;;;;;;4878598;29;20068;-86
2022/09/04 12:37:20;;;;;;;1.27;1.17;;;24.60;90.90;;;;;;4894383;29;20021;-85
2022/09/04 12:40:05;;;;;;;1.13;1.10;;;24.60;90.80;;;;;;4896363;29;20028;-85
2022/09/04 12:42:50;;;;;;;2.70;1.15;;;24.70;90.40;;;;;;4890500;29;20057;-84
2022/09/04 12:45:31;;;;;;;4.63;1.02;;;24.70;90.10;;;;;;4877686;29;20040;-84
2022/09/04 12:48:34;;;;;;;1.95;1.05;;;24.70;89.60;;;;;;4876998;29;20037;-86
2022/09/04 12:51:04;;;;;;;1.77;1.35;;;24.90;89.10;;;;;;4892494;29;20045;-85
2022/09/04 12:53:49;;;;;;;1.58;1.48;;;25.10;88.80;;;;;;4893817;29;20104;-85
2022/09/04 12:56:46;;;;;;;1.35;1.25;;;25.20;88.50;;;;;;4877129;29;20057;-84
2022/09/04 12:59:33;;;;;;;0.98;0.93;;;25.20;88.40;;;;;;4847732;29;20073;-85
2022/09/04 13:02:22;;;;;;;1.08;1.08;;;25.30;88.20;;;;;;4878349;29;20037;-84
2022/09/04 13:05:31;;;;;;;0.90;0.90;;;25.30;87.60;;;;;;4878885;29;20049;-84
2022/09/04 13:08:18;;;;;;;1.88;1.48;;;25.40;87.10;;;;;;4870824;29;20128;-84
2022/09/04 13:11:19;;;;;;;1.40;0.90;;;25.40;86.60;;;;;;4894291;29;20029;-84
2022/09/04 13:14:06;;;;;;;0.95;0.95;;;25.20;86.70;;;;;;4846236;29;20070;-84
2022/09/04 13:16:58;;;;;;;1.45;1.02;;;25.40;86.70;;;;;;4890471;29;20032;-85
2022/09/04 13:19:53;;;;;;;4.20;1.00;;;25.50;86.40;;;;;;4857761;29;20041;-84
2022/09/04 13:22:25;;;;;;;1.73;1.15;;;25.50;86.10;;;;;;4844113;29;20041;-85
2022/09/04 13:25:06;;;;;;;0.80;0.75;;;25.60;86.20;;;;;;4868856;29;20037;-84
2022/09/04 13:27:48;;;;;;;1.70;0.88;;;25.60;86.10;;;;;;4876125;29;20402;-84
2022/09/04 13:30:20;;;;;;;1.42;1.00;;;25.70;86.20;;;;;;4879730;29;20025;-85
2022/09/04 13:33:01;;;;;;;1.08;0.93;;;25.70;85.90;;;;;;4875666;29;20021;-85
2022/09/04 13:36:10;;;;;;;6.50;1.25;;;25.60;85.30;;;;;;4888341;29;20471;-84
2022/09/04 13:38:48;;;;;;;1.50;1.27;;;25.60;85.30;;;;;;4887846;29;20033;-84
2022/09/04 13:41:51;;;;;;;0.77;0.77;;;25.60;84.90;;;;;;4876350;29;20056;-84
2022/09/04 13:44:28;;;;;;;1.95;0.80;;;25.60;84.90;;;;;;4876156;29;20043;-85
2022/09/04 13:47:19;;;;;;;1.17;1.17;;;25.50;84.80;;;;;;4878711;29;20033;-82
2022/09/04 13:50:07;;;;;;;1.38;0.75;;;25.50;84.90;;;;;;4876480;29;20041;-84
2022/09/04 13:52:54;;;;;;;1.35;0.88;;;25.50;84.80;;;;;;4863084;29;20044;-84
2022/09/04 13:55:32;;;;;;;0.98;0.77;;;25.50;85.00;;;;;;4886422;29;20094;-85
2022/09/04 13:58:02;;;;;;;1.52;1.25;;;25.50;85.00;;;;;;4874881;29;20027;-84
2022/09/04 14:00:33;;;;;;;2.92;1.15;;;25.40;84.00;;;;;;4891417;29;20029;-85
2022/09/04 14:03:04;;;;;;;3.47;1.25;;;25.40;84.30;;;;;;4874604;29;20032;-83
2022/09/04 14:05:33;;;;;;;1.17;1.08;;;25.40;84.50;;;;;;4874977;29;20546;-86
2022/09/04 14:08:12;;;;;;;2.72;1.10;;;25.40;84.70;;;;;;4875662;29;20403;-85
2022/09/04 14:10:54;;;;;;;1.57;1.17;;;25.40;84.30;;;;;;4883343;29;20036;-86
2022/09/04 14:13:40;;;;;;;2.53;1.13;;;25.50;84.50;;;;;;4856737;29;20033;-86
2022/09/04 14:16:10;;;;;;;3.10;0.75;;;25.50;84.80;;;;;;4872075;29;20483;-86
2022/09/04 14:18:57;;;;;;;1.63;1.52;;;25.50;84.40;;;;;;4902164;29;20041;-85
2022/09/04 14:21:56;;;;;;;1.35;1.00;;;25.60;84.70;;;;;;4897154;29;20073;-85
2022/09/04 14:24:45;;;;;;;1.58;0.93;;;25.60;84.50;;;;;;4878067;29;20041;-85
2022/09/04 14:27:46;;;;;;;1.40;1.30;;;25.60;84.20;;;;;;4858585;29;20037;-85
2022/09/04 14:30:14;;;;;;;1.48;1.33;;;25.60;84.40;;;;;;4845187;29;20081;-85
2022/09/04 14:32:51;;;;;;;0.70;0.70;;;25.70;84.10;;;;;;4874073;29;20041;-85
2022/09/04 14:35:20;;;;;;;0.90;0.90;;;25.70;83.80;;;;;;4893613;29;20043;-85
2022/09/04 14:38:25;;;;;;;1.50;1.40;;;25.70;84.10;;;;;;4876218;29;20033;-85
2022/09/04 14:41:09;;;;;;;0.70;0.70;;;25.80;84.00;;;;;;4876002;29;20056;-85
2022/09/04 14:44:02;;;;;;;1.48;0.85;;;25.80;83.90;;;;;;4874225;29;20044;-85
2022/09/04 14:46:43;;;;;;;4.25;1.45;;;25.90;83.70;;;;;;4875697;29;20047;-84
2022/09/04 14:49:22;;;;;;;2.88;1.48;;;26.00;83.30;;;;;;4874980;29;20037;-86
2022/09/04 14:51:55;;;;;;;3.13;1.10;;;26.10;83.00;;;;;;4874564;29;20398;-84
2022/09/04 14:54:34;;;;;;;1.13;0.50;;;26.10;83.00;;;;;;4874878;29;20036;-85
2022/09/04 14:57:19;;;;;;;2.15;0.80;;;26.00;83.20;;;;;;4878003;29;20025;-84
2022/09/04 15:00:08;;;;;;;0.77;0.77;;;26.20;83.20;;;;;;4879085;29;20025;-85
2022/09/04 15:02:46;;;;;;;1.55;1.25;;;26.30;83.10;;;;;;4878045;29;20033;-85
2022/09/04 15:05:29;;;;;;;1.23;1.20;;;26.20;83.10;;;;;;4845142;29;20124;-84